sensor_id;sensor_type;location;lat;lon;timestamp;temperature;humidity
37530;DHT22;23374;52.758;6.872;2024-01-07T00:00:04;1.10;8.60
37530;DHT22;23374;52.758;6.872;2024-01-07T00:02:25;1.10;99.90
37530;DHT22;23374;52.758;6.872;2024-01-07T00:04:45;1.20;99.90
37530;DHT22;23374;52.758;6.872;2024-01-07T00:07:07;1.20;99.90
37530;DHT22;23374;52.758;6.872;2024-01-07T00:09:27;1.20;99.90
37530;DHT22;23374;52.758;6.872;2024-01-07T00:11:47;1.20;1.00
37530;DHT22;23374;52.758;6.872;2024-01-07T00:14:08;1.20;1.00
37530;DHT22;23374;52.758;6.872;2024-01-07T00:16:29;1.20;99.90
37530;DHT22;23374;52.758;6.872;2024-01-07T00:18:49;1.20;47.40
37530;DHT22;23374;52.758;6.872;2024-01-07T00:21:09;1.30;99.90
37530;DHT22;23374;52.758;6.872;2024-01-07T00:23:30;1.30;97.30
37530;DHT22;23374;52.758;6.872;2024-01-07T00:25:50;1.20;1.00
37530;DHT22;23374;52.758;6.872;2024-01-07T00:28:10;1.20;1.00
37530;DHT22;23374;52.758;6.872;2024-01-07T00:30:31;1.20;1.00
37530;DHT22;23374;52.758;6.872;2024-01-07T00:32:52;1.20;1.00
37530;DHT22;23374;52.758;6.872;2024-01-07T00:35:12;1.20;1.00
37530;DHT22;23374;52.758;6.872;2024-01-07T00:37:33;1.20;1.00
37530;DHT22;23374;52.758;6.872;2024-01-07T00:39:55;1.20;1.00
37530;DHT22;23374;52.758;6.872;2024-01-07T00:42:15;1.10;1.00
37530;DHT22;23374;52.758;6.872;2024-01-07T00:44:37;1.20;1.00
37530;DHT22;23374;52.758;6.872;2024-01-07T00:46:58;1.20;1.00
37530;DHT22;23374;52.758;6.872;2024-01-07T00:49:18;1.10;1.00
37530;DHT22;23374;52.758;6.872;2024-01-07T00:51:38;1.20;1.00
37530;DHT22;23374;52.758;6.872;2024-01-07T00:53:59;1.20;1.00
37530;DHT22;23374;52.758;6.872;2024-01-07T00:56:19;1.20;1.00
37530;DHT22;23374;52.758;6.872;2024-01-07T00:58:39;1.20;99.90
37530;DHT22;23374;52.758;6.872;2024-01-07T01:00:59;1.20;1.00
37530;DHT22;23374;52.758;6.872;2024-01-07T01:03:20;1.20;1.00
37530;DHT22;23374;52.758;6.872;2024-01-07T01:07:26;1.20;99.90
37530;DHT22;23374;52.758;6.872;2024-01-07T01:09:47;1.10;99.90
37530;DHT22;23374;52.758;6.872;2024-01-07T01:12:07;1.10;99.90
37530;DHT22;23374;52.758;6.872;2024-01-07T01:14:28;1.10;1.00
37530;DHT22;23374;52.758;6.872;2024-01-07T01:16:48;1.10;99.90
37530;DHT22;23374;52.758;6.872;2024-01-07T01:19:08;1.10;99.90
37530;DHT22;23374;52.758;6.872;2024-01-07T01:21:29;1.10;1.00
37530;DHT22;23374;52.758;6.872;2024-01-07T01:23:49;1.10;1.00
37530;DHT22;23374;52.758;6.872;2024-01-07T01:26:09;1.10;99.90
37530;DHT22;23374;52.758;6.872;2024-01-07T01:28:30;1.10;1.00
37530;DHT22;23374;52.758;6.872;2024-01-07T01:30:50;1.20;1.00
37530;DHT22;23374;52.758;6.872;2024-01-07T01:33:11;1.20;1.00
37530;DHT22;23374;52.758;6.872;2024-01-07T01:35:31;1.20;1.00
37530;DHT22;23374;52.758;6.872;2024-01-07T01:37:51;1.20;99.90
37530;DHT22;23374;52.758;6.872;2024-01-07T01:40:12;1.10;99.90
37530;DHT22;23374;52.758;6.872;2024-01-07T01:42:33;1.10;99.90
37530;DHT22;23374;52.758;6.872;2024-01-07T01:44:53;1.00;99.90
37530;DHT22;23374;52.758;6.872;2024-01-07T01:47:17;1.10;99.90
37530;DHT22;23374;52.758;6.872;2024-01-07T01:49:38;1.10;99.90
37530;DHT22;23374;52.758;6.872;2024-01-07T01:51:59;1.10;99.90
37530;DHT22;23374;52.758;6.872;2024-01-07T01:54:20;1.10;99.90
37530;DHT22;23374;52.758;6.872;2024-01-07T01:56:42;1.10;99.90
37530;DHT22;23374;52.758;6.872;2024-01-07T01:59:03;1.10;99.90
37530;DHT22;23374;52.758;6.872;2024-01-07T02:03:45;1.10;99.90
37530;DHT22;23374;52.758;6.872;2024-01-07T02:06:06;1.10;99.90
37530;DHT22;23374;52.758;6.872;2024-01-07T02:08:27;1.10;99.90
37530;DHT22;23374;52.758;6.872;2024-01-07T02:10:47;1.10;99.90
37530;DHT22;23374;52.758;6.872;2024-01-07T02:13:07;1.10;99.90
37530;DHT22;23374;52.758;6.872;2024-01-07T02:15:29;1.10;99.90
37530;DHT22;23374;52.758;6.872;2024-01-07T02:17:49;1.10;99.90
37530;DHT22;23374;52.758;6.872;2024-01-07T02:20:10;1.10;99.90
37530;DHT22;23374;52.758;6.872;2024-01-07T02:22:31;1.10;99.90
37530;DHT22;23374;52.758;6.872;2024-01-07T02:24:51;1.10;99.90
37530;DHT22;23374;52.758;6.872;2024-01-07T02:27:11;1.10;99.90
37530;DHT22;23374;52.758;6.872;2024-01-07T02:29:32;1.20;99.90
37530;DHT22;23374;52.758;6.872;2024-01-07T02:31:51;1.10;99.90
37530;DHT22;23374;52.758;6.872;2024-01-07T02:34:12;1.10;99.90
37530;DHT22;23374;52.758;6.872;2024-01-07T02:36:32;1.10;99.90
37530;DHT22;23374;52.758;6.872;2024-01-07T02:38:52;1.10;99.90
37530;DHT22;23374;52.758;6.872;2024-01-07T02:41:13;1.10;99.90
37530;DHT22;23374;52.758;6.872;2024-01-07T02:43:33;1.20;99.90
37530;DHT22;23374;52.758;6.872;2024-01-07T02:45:54;1.10;99.90
37530;DHT22;23374;52.758;6.872;2024-01-07T02:48:15;1.10;56.50
37530;DHT22;23374;52.758;6.872;2024-01-07T02:50:35;1.10;99.90
37530;DHT22;23374;52.758;6.872;2024-01-07T02:52:56;1.00;1.00
37530;DHT22;23374;52.758;6.872;2024-01-07T02:55:16;1.10;99.90
37530;DHT22;23374;52.758;6.872;2024-01-07T02:57:36;1.10;99.90
37530;DHT22;23374;52.758;6.872;2024-01-07T02:59:57;1.00;99.90
37530;DHT22;23374;52.758;6.872;2024-01-07T03:02:17;1.00;99.90
37530;DHT22;23374;52.758;6.872;2024-01-07T03:04:37;1.00;99.90
37530;DHT22;23374;52.758;6.872;2024-01-07T03:06:58;1.00;99.90
37530;DHT22;23374;52.758;6.872;2024-01-07T03:09:19;1.00;99.90
37530;DHT22;23374;52.758;6.872;2024-01-07T03:11:41;1.00;99.90
37530;DHT22;23374;52.758;6.872;2024-01-07T03:14:02;1.10;99.90
37530;DHT22;23374;52.758;6.872;2024-01-07T03:16:23;1.00;20.80
37530;DHT22;23374;52.758;6.872;2024-01-07T03:18:43;1.00;73.00
37530;DHT22;23374;52.758;6.872;2024-01-07T03:21:04;1.00;1.00
37530;DHT22;23374;52.758;6.872;2024-01-07T03:23:24;1.00;1.00
37530;DHT22;23374;52.758;6.872;2024-01-07T03:25:45;1.00;99.90
37530;DHT22;23374;52.758;6.872;2024-01-07T03:28:05;1.00;1.00
37530;DHT22;23374;52.758;6.872;2024-01-07T03:30:25;1.00;25.00
37530;DHT22;23374;52.758;6.872;2024-01-07T03:32:46;1.00;58.70
37530;DHT22;23374;52.758;6.872;2024-01-07T03:35:07;1.00;46.90
37530;DHT22;23374;52.758;6.872;2024-01-07T03:37:28;1.00;5.90
37530;DHT22;23374;52.758;6.872;2024-01-07T03:39:49;1.00;51.80
37530;DHT22;23374;52.758;6.872;2024-01-07T03:42:09;1.00;99.90
37530;DHT22;23374;52.758;6.872;2024-01-07T03:44:31;0.90;22.50
37530;DHT22;23374;52.758;6.872;2024-01-07T03:46:52;1.00;99.90
37530;DHT22;23374;52.758;6.872;2024-01-07T03:49:12;1.00;99.90
37530;DHT22;23374;52.758;6.872;2024-01-07T03:51:33;1.00;99.90
37530;DHT22;23374;52.758;6.872;2024-01-07T03:53:53;1.00;81.80
37530;DHT22;23374;52.758;6.872;2024-01-07T03:56:13;1.00;99.90
37530;DHT22;23374;52.758;6.872;2024-01-07T03:58:33;1.00;99.40
37530;DHT22;23374;52.758;6.872;2024-01-07T04:00:55;0.90;98.90
37530;DHT22;23374;52.758;6.872;2024-01-07T04:03:15;0.90;99.90
37530;DHT22;23374;52.758;6.872;2024-01-07T04:05:35;0.90;16.70
37530;DHT22;23374;52.758;6.872;2024-01-07T04:07:57;0.90;24.60
37530;DHT22;23374;52.758;6.872;2024-01-07T04:10:17;0.80;6.20
37530;DHT22;23374;52.758;6.872;2024-01-07T04:12:38;0.80;56.90
37530;DHT22;23374;52.758;6.872;2024-01-07T04:14:58;0.80;89.40
37530;DHT22;23374;52.758;6.872;2024-01-07T04:17:18;0.80;55.20
37530;DHT22;23374;52.758;6.872;2024-01-07T04:19:39;0.70;99.90
37530;DHT22;23374;52.758;6.872;2024-01-07T04:21:59;0.70;99.90
37530;DHT22;23374;52.758;6.872;2024-01-07T04:24:20;0.70;99.90
37530;DHT22;23374;52.758;6.872;2024-01-07T04:26:40;0.70;99.90
37530;DHT22;23374;52.758;6.872;2024-01-07T04:29:00;0.60;99.90
37530;DHT22;23374;52.758;6.872;2024-01-07T04:31:20;0.60;99.90
37530;DHT22;23374;52.758;6.872;2024-01-07T04:33:41;0.60;27.60
37530;DHT22;23374;52.758;6.872;2024-01-07T04:36:01;0.60;99.90
37530;DHT22;23374;52.758;6.872;2024-01-07T04:38:23;0.60;99.90
37530;DHT22;23374;52.758;6.872;2024-01-07T04:40:43;0.60;99.90
37530;DHT22;23374;52.758;6.872;2024-01-07T04:43:04;0.60;83.40
37530;DHT22;23374;52.758;6.872;2024-01-07T04:45:25;0.60;85.20
37530;DHT22;23374;52.758;6.872;2024-01-07T04:47:45;0.70;99.90
37530;DHT22;23374;52.758;6.872;2024-01-07T04:50:07;0.70;95.60
37530;DHT22;23374;52.758;6.872;2024-01-07T04:52:27;0.70;61.10
37530;DHT22;23374;52.758;6.872;2024-01-07T04:54:48;0.60;76.00
37530;DHT22;23374;52.758;6.872;2024-01-07T04:57:09;0.70;99.90
37530;DHT22;23374;52.758;6.872;2024-01-07T04:59:29;0.70;99.90
37530;DHT22;23374;52.758;6.872;2024-01-07T05:01:49;0.60;1.00
37530;DHT22;23374;52.758;6.872;2024-01-07T05:04:10;0.60;1.00
37530;DHT22;23374;52.758;6.872;2024-01-07T05:06:31;0.60;1.00
37530;DHT22;23374;52.758;6.872;2024-01-07T05:08:51;0.50;1.00
37530;DHT22;23374;52.758;6.872;2024-01-07T05:11:12;0.50;1.00
37530;DHT22;23374;52.758;6.872;2024-01-07T05:13:33;0.50;42.70
37530;DHT22;23374;52.758;6.872;2024-01-07T05:15:54;0.50;1.00
37530;DHT22;23374;52.758;6.872;2024-01-07T05:18:15;0.50;1.00
37530;DHT22;23374;52.758;6.872;2024-01-07T05:20:35;0.50;46.20
37530;DHT22;23374;52.758;6.872;2024-01-07T05:22:56;0.50;37.10
37530;DHT22;23374;52.758;6.872;2024-01-07T05:25:16;0.60;20.30
37530;DHT22;23374;52.758;6.872;2024-01-07T05:27:36;0.50;1.00
37530;DHT22;23374;52.758;6.872;2024-01-07T05:29:57;0.60;25.90
37530;DHT22;23374;52.758;6.872;2024-01-07T05:32:17;0.60;6.10
37530;DHT22;23374;52.758;6.872;2024-01-07T05:34:37;0.50;1.00
37530;DHT22;23374;52.758;6.872;2024-01-07T05:36:58;0.60;7.60
37530;DHT22;23374;52.758;6.872;2024-01-07T05:39:18;0.60;82.90
37530;DHT22;23374;52.758;6.872;2024-01-07T05:41:38;0.70;99.90
37530;DHT22;23374;52.758;6.872;2024-01-07T05:43:59;0.70;1.60
37530;DHT22;23374;52.758;6.872;2024-01-07T05:46:20;0.70;1.00
37530;DHT22;23374;52.758;6.872;2024-01-07T05:48:45;0.60;1.00
37530;DHT22;23374;52.758;6.872;2024-01-07T05:51:05;0.60;1.00
37530;DHT22;23374;52.758;6.872;2024-01-07T05:53:25;0.60;1.00
37530;DHT22;23374;52.758;6.872;2024-01-07T05:55:46;0.50;99.90
37530;DHT22;23374;52.758;6.872;2024-01-07T05:58:06;0.50;1.00
37530;DHT22;23374;52.758;6.872;2024-01-07T06:00:27;0.50;1.00
37530;DHT22;23374;52.758;6.872;2024-01-07T06:02:47;0.50;1.00
37530;DHT22;23374;52.758;6.872;2024-01-07T06:05:08;0.50;1.00
37530;DHT22;23374;52.758;6.872;2024-01-07T06:07:29;0.50;1.00
37530;DHT22;23374;52.758;6.872;2024-01-07T06:09:49;0.50;1.00
37530;DHT22;23374;52.758;6.872;2024-01-07T06:12:09;0.60;1.00
37530;DHT22;23374;52.758;6.872;2024-01-07T06:14:29;0.50;99.90
37530;DHT22;23374;52.758;6.872;2024-01-07T06:16:50;0.60;99.90
37530;DHT22;23374;52.758;6.872;2024-01-07T06:19:10;0.50;99.90
37530;DHT22;23374;52.758;6.872;2024-01-07T06:21:31;0.60;99.90
37530;DHT22;23374;52.758;6.872;2024-01-07T06:23:51;0.60;99.90
37530;DHT22;23374;52.758;6.872;2024-01-07T06:26:12;0.60;99.90
37530;DHT22;23374;52.758;6.872;2024-01-07T06:28:33;0.60;99.90
37530;DHT22;23374;52.758;6.872;2024-01-07T06:30:53;0.60;99.90
37530;DHT22;23374;52.758;6.872;2024-01-07T06:33:13;0.60;99.90
37530;DHT22;23374;52.758;6.872;2024-01-07T06:35:34;0.60;99.90
37530;DHT22;23374;52.758;6.872;2024-01-07T06:37:54;0.60;99.90
37530;DHT22;23374;52.758;6.872;2024-01-07T06:40:15;0.60;99.90
37530;DHT22;23374;52.758;6.872;2024-01-07T06:42:36;0.60;99.90
37530;DHT22;23374;52.758;6.872;2024-01-07T06:44:57;0.60;99.90
37530;DHT22;23374;52.758;6.872;2024-01-07T06:47:17;0.60;99.90
37530;DHT22;23374;52.758;6.872;2024-01-07T06:49:38;0.60;99.90
37530;DHT22;23374;52.758;6.872;2024-01-07T06:51:59;0.60;99.90
37530;DHT22;23374;52.758;6.872;2024-01-07T06:54:19;0.60;99.90
37530;DHT22;23374;52.758;6.872;2024-01-07T06:56:40;0.60;99.90
37530;DHT22;23374;52.758;6.872;2024-01-07T06:59:00;0.60;99.90
37530;DHT22;23374;52.758;6.872;2024-01-07T07:01:21;0.60;99.90
37530;DHT22;23374;52.758;6.872;2024-01-07T07:03:45;0.60;99.90
37530;DHT22;23374;52.758;6.872;2024-01-07T07:06:05;0.50;99.90
37530;DHT22;23374;52.758;6.872;2024-01-07T07:08:25;0.50;94.00
37530;DHT22;23374;52.758;6.872;2024-01-07T07:10:45;0.50;99.90
37530;DHT22;23374;52.758;6.872;2024-01-07T07:13:05;0.50;99.90
37530;DHT22;23374;52.758;6.872;2024-01-07T07:15:26;0.50;60.70
37530;DHT22;23374;52.758;6.872;2024-01-07T07:17:48;0.50;93.30
37530;DHT22;23374;52.758;6.872;2024-01-07T07:20:09;0.40;41.20
37530;DHT22;23374;52.758;6.872;2024-01-07T07:22:30;0.40;25.10
37530;DHT22;23374;52.758;6.872;2024-01-07T07:24:50;0.50;94.00
37530;DHT22;23374;52.758;6.872;2024-01-07T07:27:10;0.40;17.00
37530;DHT22;23374;52.758;6.872;2024-01-07T07:29:31;0.50;99.90
37530;DHT22;23374;52.758;6.872;2024-01-07T07:31:52;0.40;24.10
37530;DHT22;23374;52.758;6.872;2024-01-07T07:34:12;0.50;35.60
37530;DHT22;23374;52.758;6.872;2024-01-07T07:36:32;0.50;99.90
37530;DHT22;23374;52.758;6.872;2024-01-07T07:38:53;0.50;4.30
37530;DHT22;23374;52.758;6.872;2024-01-07T07:41:14;0.50;68.30
37530;DHT22;23374;52.758;6.872;2024-01-07T07:43:34;0.50;46.80
37530;DHT22;23374;52.758;6.872;2024-01-07T07:45:55;0.40;21.40
37530;DHT22;23374;52.758;6.872;2024-01-07T07:48:15;0.40;97.40
37530;DHT22;23374;52.758;6.872;2024-01-07T07:50:36;0.30;72.80
37530;DHT22;23374;52.758;6.872;2024-01-07T07:52:57;0.40;99.90
37530;DHT22;23374;52.758;6.872;2024-01-07T07:55:17;0.30;99.90
37530;DHT22;23374;52.758;6.872;2024-01-07T07:57:38;0.20;14.90
37530;DHT22;23374;52.758;6.872;2024-01-07T07:59:58;0.30;99.90
37530;DHT22;23374;52.758;6.872;2024-01-07T08:02:19;0.30;99.90
37530;DHT22;23374;52.758;6.872;2024-01-07T08:04:39;0.30;99.90
37530;DHT22;23374;52.758;6.872;2024-01-07T08:07:01;0.30;98.20
37530;DHT22;23374;52.758;6.872;2024-01-07T08:09:22;0.40;99.90
37530;DHT22;23374;52.758;6.872;2024-01-07T08:11:43;0.30;19.40
37530;DHT22;23374;52.758;6.872;2024-01-07T08:14:03;0.20;1.00
37530;DHT22;23374;52.758;6.872;2024-01-07T08:16:26;0.30;99.90
37530;DHT22;23374;52.758;6.872;2024-01-07T08:18:46;0.20;55.40
37530;DHT22;23374;52.758;6.872;2024-01-07T08:21:06;0.20;99.90
37530;DHT22;23374;52.758;6.872;2024-01-07T08:23:27;0.20;99.90
37530;DHT22;23374;52.758;6.872;2024-01-07T08:25:47;0.20;99.90
37530;DHT22;23374;52.758;6.872;2024-01-07T08:28:07;0.20;99.90
37530;DHT22;23374;52.758;6.872;2024-01-07T08:30:27;0.10;1.00
37530;DHT22;23374;52.758;6.872;2024-01-07T08:32:48;0.10;33.60
37530;DHT22;23374;52.758;6.872;2024-01-07T08:35:09;0.10;67.70
37530;DHT22;23374;52.758;6.872;2024-01-07T08:37:29;0.10;2.80
37530;DHT22;23374;52.758;6.872;2024-01-07T08:39:49;0.10;49.40
37530;DHT22;23374;52.758;6.872;2024-01-07T08:42:10;0.10;96.80
37530;DHT22;23374;52.758;6.872;2024-01-07T08:44:30;0.10;19.10
37530;DHT22;23374;52.758;6.872;2024-01-07T08:46:51;0.10;20.30
37530;DHT22;23374;52.758;6.872;2024-01-07T08:49:11;0.10;49.70
37530;DHT22;23374;52.758;6.872;2024-01-07T08:51:33;0.20;38.10
37530;DHT22;23374;52.758;6.872;2024-01-07T08:53:53;0.20;99.90
37530;DHT22;23374;52.758;6.872;2024-01-07T08:56:14;0.20;37.90
37530;DHT22;23374;52.758;6.872;2024-01-07T08:58:34;0.20;58.70
37530;DHT22;23374;52.758;6.872;2024-01-07T09:00:55;0.20;1.00
37530;DHT22;23374;52.758;6.872;2024-01-07T09:03:15;0.20;1.00
37530;DHT22;23374;52.758;6.872;2024-01-07T09:05:37;0.20;1.00
37530;DHT22;23374;52.758;6.872;2024-01-07T09:07:57;0.20;1.00
37530;DHT22;23374;52.758;6.872;2024-01-07T09:10:18;0.30;1.00
37530;DHT22;23374;52.758;6.872;2024-01-07T09:12:39;0.30;1.00
37530;DHT22;23374;52.758;6.872;2024-01-07T09:14:59;0.20;1.00
37530;DHT22;23374;52.758;6.872;2024-01-07T09:17:20;0.30;1.00
37530;DHT22;23374;52.758;6.872;2024-01-07T09:19:41;0.40;30.10
37530;DHT22;23374;52.758;6.872;2024-01-07T09:22:01;0.40;1.00
37530;DHT22;23374;52.758;6.872;2024-01-07T09:24:22;0.40;1.00
37530;DHT22;23374;52.758;6.872;2024-01-07T09:26:42;0.40;1.00
37530;DHT22;23374;52.758;6.872;2024-01-07T09:29:02;0.40;1.00
37530;DHT22;23374;52.758;6.872;2024-01-07T09:31:23;0.40;1.00
37530;DHT22;23374;52.758;6.872;2024-01-07T09:33:43;0.50;1.00
37530;DHT22;23374;52.758;6.872;2024-01-07T09:36:04;0.50;1.00
37530;DHT22;23374;52.758;6.872;2024-01-07T09:38:25;0.40;1.00
37530;DHT22;23374;52.758;6.872;2024-01-07T09:40:46;0.50;1.00
37530;DHT22;23374;52.758;6.872;2024-01-07T09:43:06;0.60;1.00
37530;DHT22;23374;52.758;6.872;2024-01-07T09:45:26;0.60;1.00
37530;DHT22;23374;52.758;6.872;2024-01-07T09:47:49;0.60;1.00
37530;DHT22;23374;52.758;6.872;2024-01-07T09:50:10;0.60;1.00
37530;DHT22;23374;52.758;6.872;2024-01-07T09:52:32;0.70;1.00
37530;DHT22;23374;52.758;6.872;2024-01-07T09:55:01;0.70;1.00
37530;DHT22;23374;52.758;6.872;2024-01-07T09:57:22;0.80;1.00
37530;DHT22;23374;52.758;6.872;2024-01-07T09:59:42;0.80;1.00
37530;DHT22;23374;52.758;6.872;2024-01-07T10:02:04;0.80;1.00
37530;DHT22;23374;52.758;6.872;2024-01-07T10:04:25;0.80;1.00
37530;DHT22;23374;52.758;6.872;2024-01-07T10:06:45;0.80;1.00
37530;DHT22;23374;52.758;6.872;2024-01-07T10:09:06;0.90;1.00
37530;DHT22;23374;52.758;6.872;2024-01-07T10:11:27;0.90;1.00
37530;DHT22;23374;52.758;6.872;2024-01-07T10:13:47;0.90;1.00
37530;DHT22;23374;52.758;6.872;2024-01-07T10:16:08;1.00;1.00
37530;DHT22;23374;52.758;6.872;2024-01-07T10:18:30;1.00;1.00
37530;DHT22;23374;52.758;6.872;2024-01-07T10:20:52;1.00;1.00
37530;DHT22;23374;52.758;6.872;2024-01-07T10:23:12;1.00;1.00
37530;DHT22;23374;52.758;6.872;2024-01-07T10:25:35;1.00;1.00
37530;DHT22;23374;52.758;6.872;2024-01-07T10:28:00;1.00;1.00
37530;DHT22;23374;52.758;6.872;2024-01-07T10:30:21;1.00;1.00
37530;DHT22;23374;52.758;6.872;2024-01-07T10:32:42;1.00;1.00
37530;DHT22;23374;52.758;6.872;2024-01-07T10:35:04;1.00;1.00
37530;DHT22;23374;52.758;6.872;2024-01-07T10:37:25;1.10;1.00
37530;DHT22;23374;52.758;6.872;2024-01-07T10:39:46;1.10;1.00
37530;DHT22;23374;52.758;6.872;2024-01-07T10:42:09;1.10;1.00
37530;DHT22;23374;52.758;6.872;2024-01-07T10:44:32;1.00;1.00
37530;DHT22;23374;52.758;6.872;2024-01-07T10:46:56;1.10;1.00
37530;DHT22;23374;52.758;6.872;2024-01-07T10:49:23;1.20;1.00
37530;DHT22;23374;52.758;6.872;2024-01-07T10:51:44;1.10;1.00
37530;DHT22;23374;52.758;6.872;2024-01-07T10:54:05;1.10;1.00
37530;DHT22;23374;52.758;6.872;2024-01-07T10:56:50;1.20;1.00
37530;DHT22;23374;52.758;6.872;2024-01-07T10:59:13;1.20;1.00
37530;DHT22;23374;52.758;6.872;2024-01-07T11:01:33;1.30;1.00
37530;DHT22;23374;52.758;6.872;2024-01-07T11:04:20;1.30;1.00
37530;DHT22;23374;52.758;6.872;2024-01-07T11:06:57;1.30;1.00
37530;DHT22;23374;52.758;6.872;2024-01-07T11:10:17;1.30;1.00
37530;DHT22;23374;52.758;6.872;2024-01-07T11:12:38;1.40;1.00
37530;DHT22;23374;52.758;6.872;2024-01-07T11:14:59;1.30;1.00
37530;DHT22;23374;52.758;6.872;2024-01-07T11:19:14;1.40;1.00
37530;DHT22;23374;52.758;6.872;2024-01-07T11:21:35;1.40;1.00
37530;DHT22;23374;52.758;6.872;2024-01-07T11:23:56;1.40;1.00
37530;DHT22;23374;52.758;6.872;2024-01-07T11:26:16;1.40;1.00
37530;DHT22;23374;52.758;6.872;2024-01-07T11:28:54;1.40;1.00
37530;DHT22;23374;52.758;6.872;2024-01-07T11:31:42;1.40;1.00
37530;DHT22;23374;52.758;6.872;2024-01-07T11:34:02;1.40;1.00
37530;DHT22;23374;52.758;6.872;2024-01-07T11:36:22;1.40;1.00
37530;DHT22;23374;52.758;6.872;2024-01-07T11:38:49;1.50;1.00
37530;DHT22;23374;52.758;6.872;2024-01-07T11:41:12;1.40;1.00
37530;DHT22;23374;52.758;6.872;2024-01-07T11:43:33;1.40;1.00
37530;DHT22;23374;52.758;6.872;2024-01-07T11:45:56;1.40;1.00
37530;DHT22;23374;52.758;6.872;2024-01-07T11:48:19;1.30;1.00
37530;DHT22;23374;52.758;6.872;2024-01-07T11:50:39;1.30;1.00
37530;DHT22;23374;52.758;6.872;2024-01-07T11:53:00;1.30;1.00
37530;DHT22;23374;52.758;6.872;2024-01-07T11:55:21;1.30;1.00
37530;DHT22;23374;52.758;6.872;2024-01-07T11:57:42;1.40;1.00
37530;DHT22;23374;52.758;6.872;2024-01-07T12:00:03;1.40;1.00
37530;DHT22;23374;52.758;6.872;2024-01-07T12:02:24;1.50;1.00
37530;DHT22;23374;52.758;6.872;2024-01-07T12:04:46;1.50;1.00
37530;DHT22;23374;52.758;6.872;2024-01-07T12:07:07;1.50;1.00
37530;DHT22;23374;52.758;6.872;2024-01-07T12:09:29;1.60;1.00
37530;DHT22;23374;52.758;6.872;2024-01-07T12:11:51;1.60;1.00
37530;DHT22;23374;52.758;6.872;2024-01-07T12:14:12;1.50;1.00
37530;DHT22;23374;52.758;6.872;2024-01-07T12:16:33;1.50;1.00
37530;DHT22;23374;52.758;6.872;2024-01-07T12:18:54;1.60;1.00
37530;DHT22;23374;52.758;6.872;2024-01-07T12:21:19;1.60;1.00
37530;DHT22;23374;52.758;6.872;2024-01-07T12:23:42;1.50;1.00
37530;DHT22;23374;52.758;6.872;2024-01-07T12:26:12;1.60;1.00
37530;DHT22;23374;52.758;6.872;2024-01-07T12:28:32;1.60;1.00
37530;DHT22;23374;52.758;6.872;2024-01-07T12:30:53;1.60;1.00
37530;DHT22;23374;52.758;6.872;2024-01-07T12:33:22;1.60;1.00
37530;DHT22;23374;52.758;6.872;2024-01-07T12:35:43;1.60;1.00
37530;DHT22;23374;52.758;6.872;2024-01-07T12:38:05;1.60;1.00
37530;DHT22;23374;52.758;6.872;2024-01-07T12:40:25;1.60;1.00
37530;DHT22;23374;52.758;6.872;2024-01-07T12:42:47;1.60;1.00
37530;DHT22;23374;52.758;6.872;2024-01-07T12:45:08;1.60;1.00
37530;DHT22;23374;52.758;6.872;2024-01-07T12:47:29;1.60;1.00
37530;DHT22;23374;52.758;6.872;2024-01-07T12:49:50;1.60;1.00
37530;DHT22;23374;52.758;6.872;2024-01-07T12:52:10;1.70;1.00
37530;DHT22;23374;52.758;6.872;2024-01-07T12:54:31;1.70;1.00
37530;DHT22;23374;52.758;6.872;2024-01-07T12:56:51;1.70;1.00
37530;DHT22;23374;52.758;6.872;2024-01-07T12:59:12;1.60;1.00
37530;DHT22;23374;52.758;6.872;2024-01-07T13:01:32;1.60;1.00
37530;DHT22;23374;52.758;6.872;2024-01-07T13:03:53;1.60;1.00
37530;DHT22;23374;52.758;6.872;2024-01-07T13:06:13;1.60;1.00
37530;DHT22;23374;52.758;6.872;2024-01-07T13:08:33;1.60;1.00
37530;DHT22;23374;52.758;6.872;2024-01-07T13:10:55;1.50;1.00
37530;DHT22;23374;52.758;6.872;2024-01-07T13:13:16;1.50;1.00
37530;DHT22;23374;52.758;6.872;2024-01-07T13:15:37;1.50;1.00
37530;DHT22;23374;52.758;6.872;2024-01-07T13:17:58;1.60;1.00
37530;DHT22;23374;52.758;6.872;2024-01-07T13:20:18;1.60;1.00
37530;DHT22;23374;52.758;6.872;2024-01-07T13:22:40;1.60;1.00
37530;DHT22;23374;52.758;6.872;2024-01-07T13:25:01;1.60;1.00
37530;DHT22;23374;52.758;6.872;2024-01-07T13:27:21;1.70;1.00
37530;DHT22;23374;52.758;6.872;2024-01-07T13:29:44;1.70;1.00
37530;DHT22;23374;52.758;6.872;2024-01-07T13:32:07;1.80;1.00
37530;DHT22;23374;52.758;6.872;2024-01-07T13:34:27;1.80;1.00
37530;DHT22;23374;52.758;6.872;2024-01-07T13:36:48;1.90;1.00
37530;DHT22;23374;52.758;6.872;2024-01-07T13:39:08;1.90;1.00
37530;DHT22;23374;52.758;6.872;2024-01-07T13:41:28;1.80;1.00
37530;DHT22;23374;52.758;6.872;2024-01-07T13:43:51;1.80;1.00
37530;DHT22;23374;52.758;6.872;2024-01-07T13:46:12;1.70;1.00
37530;DHT22;23374;52.758;6.872;2024-01-07T13:48:33;1.80;1.00
37530;DHT22;23374;52.758;6.872;2024-01-07T13:50:55;1.60;1.00
37530;DHT22;23374;52.758;6.872;2024-01-07T13:53:15;1.60;44.40
37530;DHT22;23374;52.758;6.872;2024-01-07T13:55:36;1.60;56.50
37530;DHT22;23374;52.758;6.872;2024-01-07T13:57:56;1.60;31.20
37530;DHT22;23374;52.758;6.872;2024-01-07T14:00:17;1.50;64.10
37530;DHT22;23374;52.758;6.872;2024-01-07T14:02:40;1.50;99.90
37530;DHT22;23374;52.758;6.872;2024-01-07T14:05:07;1.40;99.90
37530;DHT22;23374;52.758;6.872;2024-01-07T14:07:29;1.40;99.90
37530;DHT22;23374;52.758;6.872;2024-01-07T14:09:49;1.40;99.90
37530;DHT22;23374;52.758;6.872;2024-01-07T14:12:09;1.40;99.90
37530;DHT22;23374;52.758;6.872;2024-01-07T14:14:30;1.40;99.90
37530;DHT22;23374;52.758;6.872;2024-01-07T14:16:50;1.40;99.90
37530;DHT22;23374;52.758;6.872;2024-01-07T14:19:11;1.30;99.90
37530;DHT22;23374;52.758;6.872;2024-01-07T14:21:32;1.40;99.90
37530;DHT22;23374;52.758;6.872;2024-01-07T14:23:52;1.40;99.90
37530;DHT22;23374;52.758;6.872;2024-01-07T14:26:13;1.40;99.90
37530;DHT22;23374;52.758;6.872;2024-01-07T14:28:33;1.40;99.90
37530;DHT22;23374;52.758;6.872;2024-01-07T14:30:55;1.40;99.90
37530;DHT22;23374;52.758;6.872;2024-01-07T14:33:16;1.50;99.90
37530;DHT22;23374;52.758;6.872;2024-01-07T14:35:37;1.40;99.90
37530;DHT22;23374;52.758;6.872;2024-01-07T14:38:00;1.40;99.90
37530;DHT22;23374;52.758;6.872;2024-01-07T14:40:20;1.40;99.90
37530;DHT22;23374;52.758;6.872;2024-01-07T14:42:40;1.40;99.90
37530;DHT22;23374;52.758;6.872;2024-01-07T14:45:01;1.40;99.90
37530;DHT22;23374;52.758;6.872;2024-01-07T14:47:22;1.40;99.90
37530;DHT22;23374;52.758;6.872;2024-01-07T14:49:42;1.30;99.90
37530;DHT22;23374;52.758;6.872;2024-01-07T14:52:03;1.30;99.90
37530;DHT22;23374;52.758;6.872;2024-01-07T14:54:24;1.30;99.90
37530;DHT22;23374;52.758;6.872;2024-01-07T14:56:44;1.30;99.90
37530;DHT22;23374;52.758;6.872;2024-01-07T14:59:05;1.20;99.90
37530;DHT22;23374;52.758;6.872;2024-01-07T15:01:26;1.30;99.90
37530;DHT22;23374;52.758;6.872;2024-01-07T15:03:47;1.20;99.90
37530;DHT22;23374;52.758;6.872;2024-01-07T15:06:08;1.20;99.90
37530;DHT22;23374;52.758;6.872;2024-01-07T15:08:30;1.20;99.90
37530;DHT22;23374;52.758;6.872;2024-01-07T15:10:50;1.20;99.90
37530;DHT22;23374;52.758;6.872;2024-01-07T15:13:10;1.20;99.90
37530;DHT22;23374;52.758;6.872;2024-01-07T15:15:30;1.10;99.90
37530;DHT22;23374;52.758;6.872;2024-01-07T15:17:51;1.10;99.90